Estación Meteorológica Peña el Pijo (Robertgarden) [ 07/19/18 09:42:23 CEST ]

Fecha Hora Presion(HPa) Temp (°C) Humedad % Rocio (°C) Viento ( m/s) Direccion Lluvia 1Hora(mm) Lluvia 24H(mm) LLuvia Total(mm)
2017-Dec-20 01:01:51 1019.400 -3.2 84 -5.6         21.23
2017-Dec-20 02:10:10 1019.100 -3.0 85 -5.2         21.23
2017-Dec-20 03:02:05 1019.300 -3.1 85 -5.3         21.23
2017-Dec-20 04:06:11 1019.000 -3.3 85 -5.5         21.23
2017-Dec-20 05:01:59 1018.400 -3.4 85 -5.6         21.23
2017-Dec-20 06:01:35 1018.600 -3.5 85 -5.7         21.23
2017-Dec-20 07:01:37 1018.400 -3.5 86 -5.5         21.23
2017-Dec-20 08:01:41 1018.400 -3.5 86 -5.5         21.23
2017-Dec-20 09:01:42 1018.500 -3.5 86 -5.5         21.23
2017-Dec-20 10:01:41 1018.800 -0.2 87 -2.1         21.23
2017-Dec-20 11:01:44 1019.000 2.9 86 0.8         21.23
2017-Dec-20 12:01:38 1018.100 8.1 77 4.3         21.23
2017-Dec-20 13:01:46 1017.300 11.3 52 1.8         21.23
2017-Dec-20 14:01:38 1016.400 14.3 40 0.9         21.23
2017-Dec-20 15:01:38 1015.900 14.8 35 -0.6         21.23
2017-Dec-20 16:01:48 1016.300 12.6 34 -3.0         21.23
2017-Dec-20 17:01:33 1016.300 9.9 43 -2.2         21.23
2017-Dec-20 18:01:43 1016.900 7.4 48 -2.9         21.23
2017-Dec-20 19:01:44 1017.800 4.1 58 -3.5         21.23
2017-Dec-20 20:01:27 1018.300 3.4 62 -3.2         21.23
2017-Dec-20 21:01:47 1018.500 2.4 65 -3.5         21.23
2017-Dec-20 22:01:28 1018.600 1.3 69 -3.8         21.23
2017-Dec-20 23:01:34 1019.100 0.3 71 -4.3         21.23

Temperatura Máxima:14°    Temperatura Mínima:-3°
Presión Máxima:1019.400 Hpa    Presión Mínima:1015.900 Hpa


Volver